createdAt,value
2022-10-26T00:02:25.722Z,21.47
2022-10-26T00:04:57.235Z,21.80
2022-10-26T00:07:29.408Z,22.07
2022-10-26T00:09:57.563Z,24.00
2022-10-26T00:12:31.705Z,20.27
2022-10-26T00:14:59.781Z,21.50
2022-10-26T00:17:30.447Z,22.00
2022-10-26T00:20:03.278Z,19.80
2022-10-26T00:22:43.454Z,21.87
2022-10-26T00:27:56.369Z,18.20
2022-10-26T00:30:26.649Z,19.73
2022-10-26T00:32:58.479Z,19.73
2022-10-26T00:35:58.761Z,22.40
2022-10-26T00:38:29.153Z,19.03
2022-10-26T00:43:37.680Z,17.90
2022-10-26T00:46:07.777Z,17.43
2022-10-26T00:48:39.726Z,18.90
2022-10-26T00:51:11.002Z,18.77
2022-10-26T00:53:40.637Z,15.40
2022-10-26T00:56:08.929Z,17.53
2022-10-26T00:58:38.688Z,16.03
2022-10-26T01:01:13.867Z,17.00
2022-10-26T01:03:43.707Z,16.50
2022-10-26T01:06:13.044Z,16.27
2022-10-26T01:08:42.732Z,17.37
2022-10-26T01:11:10.657Z,16.53
2022-10-26T01:13:40.306Z,14.20
2022-10-26T01:16:19.143Z,14.30
2022-10-26T01:18:54.188Z,14.93
2022-10-26T01:21:45.592Z,15.50
2022-10-26T01:24:26.269Z,15.63
2022-10-26T01:27:06.564Z,15.73
2022-10-26T01:29:57.733Z,14.97
2022-10-26T01:32:28.789Z,15.63
2022-10-26T01:34:58.445Z,18.50
2022-10-26T01:37:28.018Z,13.93
2022-10-26T01:39:56.885Z,14.50
2022-10-26T01:42:24.828Z,16.53
2022-10-26T01:44:54.910Z,14.83
2022-10-26T01:47:25.808Z,16.77
2022-10-26T01:49:56.724Z,14.93
2022-10-26T01:52:29.416Z,14.93
2022-10-26T01:55:02.954Z,16.47
2022-10-26T01:57:31.637Z,14.53
2022-10-26T02:00:04.760Z,14.90
2022-10-26T02:03:00.535Z,15.23
2022-10-26T02:06:01.112Z,14.23
2022-10-26T02:08:38.703Z,14.87
2022-10-26T02:11:12.310Z,16.37
2022-10-26T02:13:43.749Z,16.50
2022-10-26T02:16:17.037Z,16.70
2022-10-26T02:18:47.290Z,13.30
2022-10-26T02:21:17.359Z,16.07
2022-10-26T02:23:52.010Z,16.53
2022-10-26T02:26:22.755Z,16.10
2022-10-26T02:28:52.239Z,17.90
2022-10-26T02:31:20.226Z,14.50
2022-10-26T02:36:19.392Z,16.00
2022-10-26T02:38:48.868Z,18.00
2022-10-26T02:41:16.880Z,18.30
2022-10-26T02:43:47.004Z,18.93
2022-10-26T02:46:16.336Z,17.83
2022-10-26T02:48:44.675Z,18.57
2022-10-26T02:51:13.319Z,20.03
2022-10-26T02:53:44.514Z,18.83
2022-10-26T02:56:18.868Z,19.80
2022-10-26T02:58:48.493Z,19.93
2022-10-26T03:01:16.968Z,19.63
2022-10-26T03:03:53.305Z,22.00
2022-10-26T03:06:24.406Z,20.40
2022-10-26T03:08:52.383Z,20.00
2022-10-26T03:11:21.836Z,20.70
2022-10-26T03:13:49.683Z,20.07
2022-10-26T03:16:18.597Z,20.90
2022-10-26T03:18:46.693Z,18.97
2022-10-26T03:21:15.099Z,22.53
2022-10-26T03:23:43.058Z,20.37
2022-10-26T03:26:11.507Z,21.67
2022-10-26T03:28:40.954Z,18.53
2022-10-26T03:31:09.672Z,18.23
2022-10-26T03:36:06.427Z,20.20
2022-10-26T03:38:36.556Z,17.03
2022-10-26T03:41:04.997Z,20.20
2022-10-26T03:43:32.929Z,20.20
2022-10-26T03:46:02.319Z,19.60
2022-10-26T03:48:30.227Z,19.97
2022-10-26T03:51:00.119Z,21.30
2022-10-26T03:53:28.068Z,22.57
2022-10-26T03:55:56.382Z,20.80
2022-10-26T04:00:52.946Z,20.47
2022-10-26T04:03:22.281Z,26.13
2022-10-26T04:05:50.769Z,20.40
2022-10-26T04:08:18.965Z,25.90
2022-10-26T04:10:47.439Z,23.20
2022-10-26T04:13:15.290Z,23.90
2022-10-26T04:15:43.382Z,22.37
2022-10-26T04:18:13.453Z,23.43
2022-10-26T04:20:43.149Z,23.77
2022-10-26T04:23:12.280Z,23.60
2022-10-26T04:25:40.189Z,24.13
2022-10-26T04:28:10.375Z,23.63
2022-10-26T04:30:38.376Z,24.90
2022-10-26T04:33:06.785Z,25.03
2022-10-26T04:35:34.694Z,24.83
2022-10-26T04:38:06.112Z,26.63
2022-10-26T04:40:34.382Z,23.30
2022-10-26T04:43:02.904Z,24.17
2022-10-26T04:45:31.507Z,25.23
2022-10-26T04:48:05.058Z,23.43
2022-10-26T04:50:33.050Z,26.50
2022-10-26T04:53:01.564Z,26.60
2022-10-26T04:55:30.926Z,22.07
2022-10-26T04:58:01.284Z,24.50
2022-10-26T05:00:30.375Z,23.90
2022-10-26T05:03:01.108Z,23.60
2022-10-26T05:05:29.070Z,23.47
2022-10-26T05:07:57.293Z,23.97
2022-10-26T05:10:25.433Z,23.30
2022-10-26T05:12:54.994Z,23.40
2022-10-26T05:15:23.116Z,22.93
2022-10-26T05:17:56.247Z,20.23
2022-10-26T05:20:29.383Z,24.90
2022-10-26T05:22:57.478Z,20.60
2022-10-26T05:25:25.467Z,22.20
2022-10-26T05:27:58.249Z,21.70
2022-10-26T05:30:26.303Z,22.37
2022-10-26T05:32:57.516Z,20.27
2022-10-26T05:35:25.857Z,20.90
2022-10-26T05:37:53.877Z,23.17
2022-10-26T05:40:22.256Z,20.67
2022-10-26T05:42:51.111Z,21.40
2022-10-26T05:45:20.749Z,18.40
2022-10-26T05:47:49.393Z,19.23
2022-10-26T05:50:17.599Z,19.60
2022-10-26T05:52:46.349Z,21.10
2022-10-26T05:55:15.290Z,20.70
2022-10-26T05:57:43.915Z,19.27
2022-10-26T06:00:16.651Z,18.40
2022-10-26T06:02:53.682Z,20.10
2022-10-26T06:05:23.597Z,20.50
2022-10-26T06:07:52.247Z,21.20
2022-10-26T06:10:20.907Z,18.60
2022-10-26T06:12:49.342Z,17.00
2022-10-26T06:15:19.784Z,16.67
2022-10-26T06:17:54.037Z,14.93
2022-10-26T06:20:29.582Z,18.20
2022-10-26T06:23:07.874Z,17.30
2022-10-26T06:25:38.856Z,17.00
2022-10-26T06:28:12.768Z,17.57
2022-10-26T06:30:41.406Z,14.07
2022-10-26T06:33:24.931Z,16.10
2022-10-26T06:36:00.313Z,14.60
2022-10-26T06:38:28.746Z,16.20
2022-10-26T06:40:57.586Z,14.47
2022-10-26T06:43:26.613Z,14.30
2022-10-26T06:45:58.040Z,13.87
2022-10-26T06:48:28.363Z,13.70
2022-10-26T06:50:56.730Z,15.23
2022-10-26T06:53:27.067Z,11.57
2022-10-26T06:55:55.325Z,13.20
2022-10-26T06:58:24.687Z,13.13
2022-10-26T07:00:54.048Z,14.60
2022-10-26T07:03:21.989Z,12.27
2022-10-26T07:05:51.706Z,11.30
2022-10-26T07:08:19.607Z,12.10
2022-10-26T07:10:47.878Z,10.70
2022-10-26T07:13:15.987Z,12.33
2022-10-26T07:15:44.283Z,11.83
2022-10-26T07:18:12.188Z,12.10
2022-10-26T07:20:41.152Z,12.43
2022-10-26T07:23:11.468Z,9.80
2022-10-26T07:25:41.805Z,11.10
2022-10-26T07:28:10.786Z,12.97
2022-10-26T07:30:39.061Z,10.57
2022-10-26T07:33:08.442Z,10.97
2022-10-26T07:35:36.416Z,11.00
2022-10-26T07:38:04.725Z,10.60
2022-10-26T07:40:34.200Z,11.00
2022-10-26T07:43:02.714Z,9.67
2022-10-26T07:45:30.771Z,9.70
2022-10-26T07:47:59.237Z,10.80
2022-10-26T07:50:27.226Z,9.43
2022-10-26T07:52:55.636Z,10.43
2022-10-26T07:55:23.542Z,9.70
2022-10-26T07:57:54.910Z,8.60
2022-10-26T08:00:24.136Z,7.37
2022-10-26T08:02:52.125Z,7.50
2022-10-26T08:05:20.147Z,9.30
2022-10-26T08:07:48.853Z,10.47
2022-10-26T08:10:17.659Z,8.17
2022-10-26T08:12:46.067Z,7.47
2022-10-26T08:15:15.533Z,7.13
2022-10-26T08:17:43.865Z,6.80
2022-10-26T08:20:12.623Z,7.93
2022-10-26T08:22:41.046Z,7.80
2022-10-26T08:25:09.669Z,6.37
2022-10-26T08:27:38.146Z,8.30
2022-10-26T08:30:07.176Z,7.13
2022-10-26T08:32:36.657Z,7.30
2022-10-26T08:35:04.916Z,8.23
2022-10-26T08:37:33.185Z,8.93
2022-10-26T08:40:03.013Z,6.20
2022-10-26T08:42:33.777Z,8.20
2022-10-26T08:45:03.831Z,16.20
2022-10-26T08:47:32.629Z,17.77
2022-10-26T08:50:03.774Z,16.40
2022-10-26T08:52:34.026Z,15.67
2022-10-26T08:55:02.619Z,15.13
2022-10-26T08:57:35.336Z,14.43
2022-10-26T09:00:05.525Z,18.90
2022-10-26T09:02:33.582Z,15.93
2022-10-26T09:05:05.472Z,15.67
2022-10-26T09:07:47.269Z,12.43
2022-10-26T09:12:56.748Z,43.40
2022-10-26T09:15:28.809Z,20.80
2022-10-26T09:17:59.850Z,12.90
2022-10-26T09:20:56.814Z,17.43
2022-10-26T09:23:31.158Z,13.73
2022-10-26T09:26:00.409Z,12.20
2022-10-26T09:28:29.111Z,22.83
2022-10-26T09:30:57.908Z,12.07
2022-10-26T09:33:26.565Z,14.00
2022-10-26T09:35:59.490Z,14.07
2022-10-26T09:38:30.206Z,13.30
2022-10-26T09:41:00.895Z,13.60
2022-10-26T09:43:30.728Z,10.27
2022-10-26T09:46:01.692Z,9.30
2022-10-26T09:48:32.825Z,12.63
2022-10-26T09:51:04.611Z,11.53
2022-10-26T09:53:33.533Z,18.73
2022-10-26T09:56:05.567Z,9.67
2022-10-26T09:58:35.988Z,9.80
2022-10-26T10:01:03.954Z,14.23
2022-10-26T10:03:33.147Z,10.23
2022-10-26T10:06:20.688Z,7.07
2022-10-26T10:09:07.264Z,7.60
2022-10-26T10:11:39.146Z,7.80
2022-10-26T10:14:08.850Z,5.00
2022-10-26T10:16:36.958Z,5.27
2022-10-26T10:19:05.561Z,6.60
2022-10-26T10:21:39.107Z,14.73
2022-10-26T10:24:22.289Z,5.17
2022-10-26T10:26:57.497Z,17.73
2022-10-26T10:29:27.811Z,15.43
2022-10-26T10:31:59.602Z,8.40
2022-10-26T10:34:27.980Z,6.87
2022-10-26T10:36:58.158Z,6.70
2022-10-26T10:39:39.024Z,9.00
2022-10-26T10:42:13.223Z,5.83
2022-10-26T10:44:41.333Z,13.77
2022-10-26T10:47:16.057Z,3.63
2022-10-26T10:49:44.581Z,5.60
2022-10-26T10:52:23.586Z,4.60
2022-10-26T10:54:51.542Z,7.90
2022-10-26T10:57:23.177Z,7.00
2022-10-26T10:59:56.303Z,4.67
2022-10-26T11:02:57.040Z,8.57
2022-10-26T11:05:36.701Z,5.40
2022-10-26T11:08:07.919Z,7.40
2022-10-26T11:10:37.748Z,6.87
2022-10-26T11:13:08.963Z,8.00
2022-10-26T11:15:36.719Z,5.73
2022-10-26T11:18:07.921Z,6.90
2022-10-26T11:20:37.778Z,10.37
2022-10-26T11:23:11.240Z,4.50
2022-10-26T11:25:42.987Z,11.23
2022-10-26T11:28:14.938Z,6.20
2022-10-26T11:30:44.638Z,3.90
2022-10-26T11:33:15.187Z,5.57
2022-10-26T11:35:47.097Z,7.50
2022-10-26T11:38:27.949Z,22.13
2022-10-26T11:41:09.793Z,9.10
2022-10-26T11:43:40.914Z,7.93
2022-10-26T11:46:12.799Z,9.03
2022-10-26T11:48:45.800Z,8.73
2022-10-26T11:51:17.956Z,11.50
2022-10-26T11:53:47.040Z,5.07
2022-10-26T11:56:18.547Z,7.97
2022-10-26T11:58:46.371Z,15.73
2022-10-26T12:01:15.328Z,8.63
2022-10-26T12:03:48.715Z,18.53
2022-10-26T12:06:16.865Z,20.50
2022-10-26T12:08:46.785Z,12.27
2022-10-26T12:11:26.976Z,14.33
2022-10-26T12:13:57.195Z,17.77
2022-10-26T12:16:31.226Z,19.53
2022-10-26T12:19:00.306Z,14.40
2022-10-26T12:21:29.963Z,8.77
2022-10-26T12:24:01.504Z,14.37
2022-10-26T12:26:56.051Z,7.50
2022-10-26T12:29:49.377Z,12.90
2022-10-26T12:32:50.950Z,11.27
2022-10-26T12:35:46.511Z,24.63
2022-10-26T12:39:02.491Z,22.17
2022-10-26T12:41:30.491Z,11.67
2022-10-26T12:44:06.151Z,25.60
2022-10-26T12:46:40.149Z,18.73
2022-10-26T12:49:41.738Z,23.00
2022-10-26T12:52:32.587Z,15.67
2022-10-26T12:55:45.308Z,12.87
2022-10-26T12:58:34.775Z,23.93
2022-10-26T13:01:40.313Z,17.93
2022-10-26T13:04:34.108Z,21.50
2022-10-26T13:07:18.053Z,25.70
2022-10-26T13:09:47.379Z,14.80
2022-10-26T13:12:15.744Z,16.60
2022-10-26T13:14:58.819Z,23.90
2022-10-26T13:17:27.591Z,14.00
2022-10-26T13:20:01.196Z,13.43
2022-10-26T13:22:29.196Z,13.60
2022-10-26T13:24:59.095Z,15.00
2022-10-26T13:27:42.111Z,12.80
2022-10-26T13:30:36.738Z,25.90
2022-10-26T13:33:05.402Z,10.83
2022-10-26T13:35:34.803Z,9.83
2022-10-26T13:38:03.183Z,11.40
2022-10-26T13:40:31.094Z,16.20
2022-10-26T13:42:59.795Z,11.20
2022-10-26T13:45:28.938Z,10.30
2022-10-26T13:47:59.611Z,12.40
2022-10-26T13:50:31.318Z,5.47
2022-10-26T13:53:02.724Z,7.63
2022-10-26T13:55:31.555Z,8.27
2022-10-26T13:58:11.413Z,8.17
2022-10-26T14:00:39.340Z,3.07
2022-10-26T14:03:19.025Z,7.30
2022-10-26T14:05:47.003Z,5.63
2022-10-26T14:08:17.535Z,8.90
2022-10-26T14:10:47.746Z,5.93
2022-10-26T14:13:16.660Z,8.17
2022-10-26T14:15:46.254Z,10.07
2022-10-26T14:18:17.187Z,6.30
2022-10-26T14:20:49.157Z,6.27
2022-10-26T14:23:34.651Z,7.80
2022-10-26T14:26:03.056Z,5.60
2022-10-26T14:28:31.952Z,6.53
2022-10-26T14:31:16.578Z,10.00
2022-10-26T14:33:47.593Z,8.43
2022-10-26T14:36:16.108Z,5.10
2022-10-26T14:38:46.485Z,13.40
2022-10-26T14:41:17.064Z,3.10
2022-10-26T14:43:45.165Z,7.00
2022-10-26T14:46:15.445Z,4.83
2022-10-26T14:48:45.920Z,3.80
2022-10-26T14:51:18.211Z,7.73
2022-10-26T14:53:51.886Z,5.37
2022-10-26T14:56:24.098Z,3.53
2022-10-26T14:58:52.329Z,5.70
2022-10-26T15:01:31.651Z,4.40
2022-10-26T15:04:03.333Z,5.93
2022-10-26T15:09:39.114Z,9.60
2022-10-26T15:12:07.943Z,5.47
2022-10-26T15:14:36.490Z,7.17
2022-10-26T15:17:04.447Z,2.73
2022-10-26T15:19:32.871Z,5.40
2022-10-26T15:22:00.967Z,3.47
2022-10-26T15:24:38.684Z,4.57
2022-10-26T15:27:14.022Z,3.27
2022-10-26T15:29:43.851Z,5.90
2022-10-26T15:32:35.492Z,4.67
2022-10-26T15:35:25.147Z,2.77
2022-10-26T15:37:53.914Z,5.67
2022-10-26T15:42:54.560Z,8.13
2022-10-26T15:45:24.088Z,4.60
2022-10-26T15:47:52.950Z,7.07
2022-10-26T15:50:22.268Z,4.23
2022-10-26T15:52:50.374Z,7.03
2022-10-26T15:55:19.145Z,3.83
2022-10-26T15:57:48.955Z,7.30
2022-10-26T16:00:18.659Z,3.07
2022-10-26T16:02:46.815Z,3.70
2022-10-26T16:05:16.484Z,5.10
2022-10-26T16:07:46.429Z,4.80
2022-10-26T16:10:16.638Z,4.97
2022-10-26T16:12:44.685Z,3.60
2022-10-26T16:15:20.201Z,4.73
2022-10-26T16:17:48.830Z,3.40
2022-10-26T16:20:18.359Z,3.13
2022-10-26T16:22:48.414Z,6.50
2022-10-26T16:25:17.765Z,4.70
2022-10-26T16:27:45.779Z,3.33
2022-10-26T16:30:14.706Z,5.40
2022-10-26T16:32:44.595Z,5.67
2022-10-26T16:35:12.949Z,4.23
2022-10-26T16:37:41.521Z,5.30
2022-10-26T16:40:10.231Z,4.07
2022-10-26T16:42:38.057Z,8.53
2022-10-26T16:45:06.881Z,12.57
2022-10-26T16:47:37.614Z,17.40
2022-10-26T16:50:07.931Z,16.00
2022-10-26T16:52:38.856Z,9.10
2022-10-26T16:55:07.213Z,7.37
2022-10-26T16:57:36.381Z,13.53
2022-10-26T17:00:05.197Z,10.47
2022-10-26T17:02:34.071Z,14.20
2022-10-26T17:05:05.899Z,7.93
2022-10-26T17:07:38.621Z,8.70
2022-10-26T17:10:07.186Z,19.53
2022-10-26T17:12:35.655Z,8.90
2022-10-26T17:15:03.612Z,10.30
2022-10-26T17:17:32.005Z,10.43
2022-10-26T17:20:01.294Z,11.07
2022-10-26T17:22:29.329Z,8.30
2022-10-26T17:24:59.143Z,9.70
2022-10-26T17:27:27.538Z,16.10
2022-10-26T17:29:55.714Z,17.70
2022-10-26T17:32:23.763Z,9.03
2022-10-26T17:34:51.795Z,18.73
2022-10-26T17:37:20.263Z,10.73
2022-10-26T17:39:48.268Z,9.10
2022-10-26T17:42:18.079Z,14.90
2022-10-26T17:44:45.989Z,8.10
2022-10-26T17:47:14.486Z,13.53
2022-10-26T17:49:42.499Z,10.40
2022-10-26T17:52:12.060Z,7.30
2022-10-26T17:54:40.520Z,7.10
2022-10-26T17:57:08.469Z,9.70
2022-10-26T17:59:38.479Z,6.50
2022-10-26T18:02:06.431Z,10.90
2022-10-26T18:04:35.029Z,9.63
2022-10-26T18:07:03.248Z,7.30
2022-10-26T18:09:31.925Z,7.90
2022-10-26T18:11:59.910Z,5.90
2022-10-26T18:14:28.412Z,6.60
2022-10-26T18:16:57.860Z,10.03
2022-10-26T18:19:26.898Z,7.30
2022-10-26T18:21:54.834Z,6.40
2022-10-26T18:24:23.680Z,7.03
2022-10-26T18:26:51.641Z,6.60
2022-10-26T18:29:19.946Z,6.97
2022-10-26T18:31:48.142Z,7.33
2022-10-26T18:34:17.973Z,11.07
2022-10-26T18:36:46.182Z,7.40
2022-10-26T18:39:14.901Z,13.70
2022-10-26T18:41:43.302Z,15.40
2022-10-26T18:44:11.899Z,9.60
2022-10-26T18:46:41.465Z,5.30
2022-10-26T18:49:10.502Z,10.30
2022-10-26T18:51:40.387Z,6.90
2022-10-26T18:54:08.549Z,5.93
2022-10-26T18:56:36.521Z,8.03
2022-10-26T18:59:05.719Z,6.13
2022-10-26T19:01:35.004Z,7.93
2022-10-26T19:04:03.846Z,3.90
2022-10-26T19:06:32.988Z,11.80
2022-10-26T19:09:02.504Z,5.67
2022-10-26T19:11:31.632Z,9.30
2022-10-26T19:14:00.180Z,8.33
2022-10-26T19:19:17.363Z,5.00
2022-10-26T19:21:45.520Z,7.17
2022-10-26T19:24:15.960Z,7.00
2022-10-26T19:26:44.389Z,4.37
2022-10-26T19:29:15.637Z,6.40
2022-10-26T19:31:44.426Z,6.23
2022-10-26T19:34:13.113Z,3.57
2022-10-26T19:36:44.711Z,7.60
2022-10-26T19:39:15.717Z,8.73
2022-10-26T19:41:43.893Z,4.50
2022-10-26T19:44:12.488Z,8.07
2022-10-26T19:46:40.304Z,5.53
2022-10-26T19:49:08.860Z,5.17
2022-10-26T19:51:36.628Z,4.23
2022-10-26T19:54:07.270Z,7.57
2022-10-26T19:56:37.166Z,10.50
2022-10-26T19:59:05.254Z,6.77
2022-10-26T20:01:33.370Z,4.40
2022-10-26T20:04:02.417Z,3.93
2022-10-26T20:06:30.962Z,5.73
2022-10-26T20:08:59.424Z,8.80
2022-10-26T20:11:32.315Z,14.00
2022-10-26T20:14:02.041Z,5.10
2022-10-26T20:16:30.053Z,4.23
2022-10-26T20:18:58.575Z,9.53
2022-10-26T20:21:27.229Z,12.27
2022-10-26T20:23:55.290Z,6.50
2022-10-26T20:26:27.466Z,6.20
2022-10-26T20:28:56.489Z,5.37
2022-10-26T20:31:26.426Z,6.67
2022-10-26T20:33:54.422Z,5.20
2022-10-26T20:36:22.809Z,5.47
2022-10-26T20:38:51.193Z,6.07
2022-10-26T20:41:20.060Z,9.23
2022-10-26T20:43:48.699Z,7.93
2022-10-26T20:46:22.903Z,8.60
2022-10-26T20:48:53.692Z,7.53
2022-10-26T20:51:26.388Z,6.27
2022-10-26T20:53:59.644Z,8.80
2022-10-26T20:56:28.582Z,5.43
2022-10-26T20:58:57.079Z,6.03
2022-10-26T21:01:27.706Z,4.60
2022-10-26T21:03:58.501Z,5.27
2022-10-26T21:06:28.190Z,5.33
2022-10-26T21:08:56.809Z,5.80
2022-10-26T21:11:27.517Z,7.53
2022-10-26T21:13:55.967Z,5.00
2022-10-26T21:16:24.555Z,8.93
2022-10-26T21:18:52.671Z,5.90
2022-10-26T21:21:22.846Z,4.67
2022-10-26T21:23:51.326Z,3.70
2022-10-26T21:26:19.425Z,4.07
2022-10-26T21:28:47.422Z,4.90
2022-10-26T21:31:16.174Z,6.53
2022-10-26T21:33:49.422Z,4.53
2022-10-26T21:36:17.610Z,5.73
2022-10-26T21:38:47.190Z,8.73
2022-10-26T21:41:18.263Z,8.00
2022-10-26T21:43:51.384Z,6.63
2022-10-26T21:46:21.932Z,9.07
2022-10-26T21:48:50.000Z,6.53
2022-10-26T21:51:18.941Z,5.57
2022-10-26T21:53:48.639Z,7.00
2022-10-26T21:56:17.773Z,7.20
2022-10-26T21:58:45.883Z,5.17
2022-10-26T22:01:15.373Z,4.93
2022-10-26T22:03:43.706Z,7.37
2022-10-26T22:06:12.109Z,9.63
2022-10-26T22:08:40.327Z,8.37
2022-10-26T22:11:12.982Z,5.47
2022-10-26T22:13:44.135Z,6.40
2022-10-26T22:16:12.908Z,5.97
2022-10-26T22:18:41.651Z,4.00
2022-10-26T22:21:09.900Z,8.40
2022-10-26T22:23:39.302Z,6.80
2022-10-26T22:26:09.909Z,8.23
2022-10-26T22:28:41.760Z,8.03
2022-10-26T22:31:11.933Z,5.27
2022-10-26T22:33:39.979Z,12.77
2022-10-26T22:36:08.944Z,6.53
2022-10-26T22:38:36.949Z,7.00
2022-10-26T22:41:05.119Z,4.20
2022-10-26T22:43:34.465Z,3.60
2022-10-26T22:46:02.726Z,6.67
2022-10-26T22:48:30.586Z,5.90
2022-10-26T22:50:58.524Z,6.57
2022-10-26T22:53:26.409Z,5.87
2022-10-26T22:55:54.236Z,13.37
2022-10-26T22:58:22.416Z,4.70
2022-10-26T23:00:51.914Z,6.93
2022-10-26T23:03:21.290Z,6.27
2022-10-26T23:05:49.336Z,6.07
2022-10-26T23:08:17.655Z,5.60
2022-10-26T23:10:45.735Z,8.23
2022-10-26T23:13:13.913Z,7.17
2022-10-26T23:15:41.759Z,6.97
2022-10-26T23:18:11.663Z,4.00
2022-10-26T23:20:39.660Z,5.87
2022-10-26T23:23:08.008Z,7.43
2022-10-26T23:25:35.843Z,6.00
2022-10-26T23:28:04.123Z,6.13
2022-10-26T23:30:31.921Z,3.30
2022-10-26T23:33:00.948Z,4.90
2022-10-26T23:35:30.507Z,6.90
2022-10-26T23:37:59.395Z,6.33
2022-10-26T23:40:27.395Z,5.40
2022-10-26T23:42:55.263Z,6.53
2022-10-26T23:45:23.425Z,5.20
2022-10-26T23:47:51.460Z,6.70
2022-10-26T23:50:19.714Z,6.13
2022-10-26T23:52:49.309Z,4.20
2022-10-26T23:55:17.333Z,5.03
2022-10-26T23:57:45.073Z,7.10
